Time;durP1;ratioP1;P1;durP2;ratioP2;P2;SDS_P1;SDS_P2;PMS_P1;PMS_P2;Temp;Humidity;BMP_temperature;BMP_pressure;BME280_temperature;BME280_humidity;BME280_pressure;Samples;Min_cycle;Max_cycle;Signal;HPM_P1;HPM_P2
2023/03/15 00:00:44;;;;;;;8.10;7.43;;;;;;;0.69;100.00;96252.53;5072286;28;20197;-61
2023/03/15 00:03:10;;;;;;;8.27;7.43;;;;;;;0.76;100.00;96263.75;5074431;28;20168;-61
2023/03/15 00:05:35;;;;;;;8.90;7.97;;;;;;;0.63;100.00;96267.91;5073989;28;20161;-61
2023/03/15 00:08:01;;;;;;;8.10;7.40;;;;;;;0.67;100.00;96282.84;5073756;28;20201;-61
2023/03/15 00:10:27;;;;;;;7.97;7.33;;;;;;;0.75;100.00;96284.56;5073911;28;20165;-61
2023/03/15 00:12:53;;;;;;;10.03;7.90;;;;;;;0.79;100.00;96286.59;5073947;28;20263;-62
2023/03/15 00:15:20;;;;;;;9.27;7.93;;;;;;;0.88;100.00;96295.06;5073967;28;20575;-62
2023/03/15 00:17:46;;;;;;;10.13;7.90;;;;;;;0.71;100.00;96307.31;5073525;28;20200;-59
2023/03/15 00:20:13;;;;;;;9.07;8.17;;;;;;;0.71;100.00;96311.69;5073407;28;20217;-61
2023/03/15 00:22:39;;;;;;;10.60;9.50;;;;;;;0.90;100.00;96313.72;5072084;28;20614;-61
2023/03/15 00:25:05;;;;;;;10.17;9.07;;;;;;;0.72;100.00;96329.56;5073525;28;20180;-61
2023/03/15 00:27:31;;;;;;;9.17;8.10;;;;;;;0.82;100.00;96330.09;5088428;28;20236;-61
2023/03/15 00:29:56;;;;;;;9.30;8.50;;;;;;;0.75;100.00;96336.13;5093600;28;20745;-60
2023/03/15 00:32:21;;;;;;;13.43;8.83;;;;;;;0.72;100.00;96334.72;5093786;28;20192;-61
2023/03/15 00:34:47;;;;;;;10.30;9.30;;;;;;;0.68;100.00;96336.03;5093601;28;20541;-63
2023/03/15 00:37:18;;;;;;;9.70;8.23;;;;;;;0.82;100.00;96343.00;5093746;28;20288;-61
2023/03/15 00:40:26;;;;;;;11.43;9.70;;;;;;;0.77;100.00;96347.88;5093426;28;20269;-62
2023/03/15 00:42:51;;;;;;;14.77;9.37;;;;;;;0.87;100.00;96355.34;5093426;28;20180;-61
2023/03/15 00:45:22;;;;;;;13.40;9.10;;;;;;;0.54;100.00;96349.72;5093598;28;20176;-61
2023/03/15 00:47:51;;;;;;;10.07;9.03;;;;;;;0.56;100.00;96360.63;5093146;28;20175;-61
2023/03/15 00:50:17;;;;;;;10.13;9.13;;;;;;;0.71;100.00;96365.84;5093450;28;20213;-61
2023/03/15 00:52:43;;;;;;;9.47;8.47;;;;;;;0.76;100.00;96373.84;5093517;28;20276;-61
2023/03/15 00:55:13;;;;;;;13.30;9.37;;;;;;;0.67;100.00;96374.91;5093695;28;20617;-60
2023/03/15 00:57:40;;;;;;;12.37;9.07;;;;;;;0.87;100.00;96375.19;5092179;28;20575;-60
2023/03/15 01:00:13;;;;;;;11.20;8.80;;;;;;;0.98;100.00;96379.91;5091809;28;20185;-61
2023/03/15 01:02:38;;;;;;;12.63;9.63;;;;;;;0.90;100.00;96390.31;5093525;28;20518;-61
2023/03/15 01:05:06;;;;;;;10.87;8.63;;;;;;;0.96;100.00;96392.19;5093223;28;20161;-61
2023/03/15 01:07:34;;;;;;;10.33;9.00;;;;;;;1.06;100.00;96398.69;5093166;28;20184;-61
2023/03/15 01:10:01;;;;;;;11.77;9.37;;;;;;;1.04;100.00;96403.25;5093018;28;20292;-61
2023/03/15 01:12:28;;;;;;;12.07;8.77;;;;;;;1.07;100.00;96399.50;5092964;28;20196;-61
2023/03/15 01:14:55;;;;;;;11.37;8.90;;;;;;;1.18;100.00;96399.84;5093115;28;20164;-61
2023/03/15 01:17:20;;;;;;;11.27;8.60;;;;;;;1.25;100.00;96408.50;5074765;28;20190;-61
2023/03/15 01:19:46;;;;;;;14.87;9.57;;;;;;;1.14;100.00;96403.78;5092706;28;20204;-60
2023/03/15 01:22:11;;;;;;;10.27;8.33;;;;;;;1.22;100.00;96402.91;5092366;28;20207;-60
2023/03/15 01:24:37;;;;;;;9.73;7.70;;;;;;;1.23;100.00;96412.22;5092810;28;20271;-61
2023/03/15 01:27:02;;;;;;;9.30;8.00;;;;;;;1.19;100.00;96414.38;5076765;28;20243;-60
2023/03/15 01:29:27;;;;;;;9.33;7.70;;;;;;;1.17;100.00;96415.53;5072430;28;20292;-61
2023/03/15 01:31:53;;;;;;;10.50;7.57;;;;;;;1.05;100.00;96417.75;5072672;28;20203;-60
2023/03/15 01:34:18;;;;;;;9.10;7.03;;;;;;;1.16;100.00;96417.31;5072496;28;20201;-61
2023/03/15 01:36:44;;;;;;;9.23;7.00;;;;;;;1.07;100.00;96414.97;5072221;28;20165;-60
2023/03/15 01:39:10;;;;;;;12.30;6.70;;;;;;;1.08;100.00;96414.00;5072544;28;20247;-60
2023/03/15 01:41:36;;;;;;;9.50;6.83;;;;;;;1.06;100.00;96416.75;5072507;28;20170;-59
2023/03/15 01:44:01;;;;;;;9.70;7.03;;;;;;;1.04;100.00;96423.88;5072338;28;20291;-58
2023/03/15 01:46:34;;;;;;;7.30;6.33;;;;;;;1.08;100.00;96427.69;5072324;28;20649;-60
2023/03/15 01:49:12;;;;;;;7.47;6.30;;;;;;;0.88;100.00;96433.53;5072460;28;20341;-60
2023/03/15 01:51:46;;;;;;;12.07;6.30;;;;;;;0.90;100.00;96440.13;5072139;28;20161;-59
2023/03/15 01:54:19;;;;;;;6.90;5.83;;;;;;;0.89;100.00;96437.75;5072602;28;20318;-60
2023/03/15 01:56:53;;;;;;;9.07;5.67;;;;;;;0.98;100.00;96434.91;5072021;28;20196;-60
2023/03/15 01:59:26;;;;;;;8.17;6.40;;;;;;;0.82;100.00;96442.78;5070115;28;20277;-60
2023/03/15 02:01:53;;;;;;;14.90;6.30;;;;;;;0.92;100.00;96443.34;5072561;28;20169;-61
2023/03/15 02:04:28;;;;;;;10.57;5.67;;;;;;;0.90;100.00;96450.44;5072318;28;20196;-61
2023/03/15 02:06:58;;;;;;;9.03;6.17;;;;;;;0.86;100.00;96453.53;5072069;28;20180;-61
2023/03/15 02:09:46;;;;;;;7.90;5.97;;;;;;;0.70;100.00;96455.28;5072322;28;20201;-60
2023/03/15 02:12:11;;;;;;;11.50;5.83;;;;;;;0.64;100.00;96452.59;5072217;28;20205;-61
2023/03/15 02:14:38;;;;;;;6.70;5.87;;;;;;;0.64;100.00;96461.13;5072249;28;20184;-59
2023/03/15 02:17:03;;;;;;;5.63;5.13;;;;;;;0.66;100.00;96460.97;5072018;28;20248;-59
2023/03/15 02:19:41;;;;;;;8.20;5.00;;;;;;;0.61;100.00;96458.91;5071912;28;20212;-60
2023/03/15 02:22:34;;;;;;;8.43;5.63;;;;;;;0.59;100.00;96457.47;5071959;28;20184;-61
2023/03/15 02:25:20;;;;;;;7.10;5.17;;;;;;;0.57;100.00;96465.38;5072174;28;20181;-61
2023/03/15 02:27:45;;;;;;;6.77;5.10;;;;;;;0.47;100.00;96462.22;5089910;28;20292;-60
2023/03/15 02:30:11;;;;;;;6.23;5.27;;;;;;;0.51;100.00;96466.06;5092319;28;20264;-60
2023/03/15 02:32:36;;;;;;;8.93;5.53;;;;;;;0.54;100.00;96464.91;5092054;28;20197;-61
2023/03/15 02:35:02;;;;;;;9.63;5.70;;;;;;;0.52;100.00;96466.84;5091946;28;20610;-60
2023/03/15 02:37:27;;;;;;;4.77;4.33;;;;;;;0.57;100.00;96467.94;5091995;28;20176;-60
2023/03/15 02:39:53;;;;;;;8.60;5.43;;;;;;;0.58;100.00;96479.88;5092031;28;20251;-61
2023/03/15 02:42:19;;;;;;;5.97;4.53;;;;;;;0.47;100.00;96476.88;5074369;28;20204;-61
2023/03/15 02:44:46;;;;;;;7.73;4.73;;;;;;;0.39;100.00;96488.84;5093148;28;20165;-61
2023/03/15 02:47:19;;;;;;;5.07;4.57;;;;;;;0.51;100.00;96493.59;5092567;28;20215;-61
2023/03/15 02:49:50;;;;;;;8.30;5.03;;;;;;;0.49;100.00;96493.78;5092598;28;20196;-61
2023/03/15 02:52:15;;;;;;;5.53;5.03;;;;;;;0.42;100.00;96498.03;5095831;28;20199;-61
2023/03/15 02:54:43;;;;;;;5.30;4.80;;;;;;;0.39;100.00;96501.72;5095605;28;20252;-57
2023/03/15 02:57:10;;;;;;;5.50;4.90;;;;;;;0.45;100.00;96502.06;5094586;28;20184;-61
2023/03/15 02:59:36;;;;;;;9.93;5.67;;;;;;;0.42;100.00;96513.50;5093452;28;20209;-57
2023/03/15 03:02:02;;;;;;;6.03;5.37;;;;;;;0.44;100.00;96513.31;5095696;28;20164;-59
2023/03/15 03:04:28;;;;;;;9.80;4.87;;;;;;;0.43;100.00;96522.84;5095752;28;20688;-59
2023/03/15 03:06:53;;;;;;;5.43;4.90;;;;;;;0.44;100.00;96524.44;5095234;28;20188;-58
2023/03/15 03:09:22;;;;;;;11.00;5.40;;;;;;;0.40;100.00;96533.47;5095287;28;20201;-60
2023/03/15 03:11:48;;;;;;;5.10;4.67;;;;;;;0.43;100.00;96530.56;5077132;28;20181;-61
2023/03/15 03:14:13;;;;;;;9.90;5.53;;;;;;;0.43;100.00;96535.72;5095253;28;20199;-61
2023/03/15 03:16:41;;;;;;;7.73;4.87;;;;;;;0.46;100.00;96542.28;5094979;28;20547;-57
2023/03/15 03:19:07;;;;;;;6.00;5.00;;;;;;;0.32;100.00;96547.22;5094968;28;20208;-57
2023/03/15 03:21:33;;;;;;;6.00;5.33;;;;;;;0.37;100.00;96557.00;5094667;28;20176;-61
2023/03/15 03:23:58;;;;;;;5.07;4.43;;;;;;;0.42;100.00;96565.03;5095271;28;20177;-60
2023/03/15 03:26:26;;;;;;;14.30;5.23;;;;;;;0.35;100.00;96561.53;5083899;28;20240;-56
2023/03/15 03:28:54;;;;;;;6.10;5.30;;;;;;;0.35;100.00;96554.59;5074886;28;20205;-57
2023/03/15 03:31:23;;;;;;;5.37;4.93;;;;;;;0.35;100.00;96566.69;5074858;28;20230;-60
2023/03/15 03:33:48;;;;;;;9.07;5.13;;;;;;;0.29;100.00;96568.16;5074638;28;20213;-59
2023/03/15 03:36:14;;;;;;;6.87;4.83;;;;;;;0.29;100.00;96572.50;5074351;28;20677;-60
2023/03/15 03:38:40;;;;;;;5.37;4.80;;;;;;;0.28;100.00;96576.84;5056497;28;20205;-58
2023/03/15 03:41:07;;;;;;;8.17;5.37;;;;;;;0.29;100.00;96583.63;5074757;28;20173;-60
2023/03/15 03:43:32;;;;;;;6.13;5.37;;;;;;;0.22;100.00;96581.91;5074284;28;20572;-61
2023/03/15 03:45:58;;;;;;;6.67;5.30;;;;;;;0.23;100.00;96588.63;5074432;28;20257;-60
2023/03/15 03:48:23;;;;;;;6.20;5.60;;;;;;;0.22;100.00;96590.44;5074299;28;20234;-61
2023/03/15 03:50:49;;;;;;;8.03;6.20;;;;;;;0.23;100.00;96596.34;5074552;28;20249;-60
2023/03/15 03:53:14;;;;;;;9.03;5.60;;;;;;;0.23;100.00;96598.94;5074496;28;20216;-61
2023/03/15 03:55:41;;;;;;;7.17;5.47;;;;;;;0.22;100.00;96605.91;5074351;28;20197;-61
2023/03/15 03:58:07;;;;;;;6.70;5.33;;;;;;;0.17;100.00;96608.13;5047691;28;20260;-61
2023/03/15 04:00:32;;;;;;;6.17;5.47;;;;;;;0.20;100.00;96612.97;5053774;28;20536;-60
2023/03/15 04:02:58;;;;;;;8.20;5.43;;;;;;;0.17;100.00;96617.66;5053236;28;20169;-61
2023/03/15 04:05:23;;;;;;;8.67;5.43;;;;;;;0.17;100.00;96618.44;5054110;28;20166;-60
2023/03/15 04:07:49;;;;;;;7.47;5.33;;;;;;;0.20;100.00;96619.91;5053819;28;20187;-59
2023/03/15 04:10:15;;;;;;;7.63;5.77;;;;;;;0.18;100.00;96612.31;5054013;28;20228;-61
2023/03/15 04:12:42;;;;;;;13.57;5.83;;;;;;;0.13;100.00;96621.53;5053745;28;20218;-60
2023/03/15 04:15:08;;;;;;;10.53;6.10;;;;;;;0.21;100.00;96634.41;5054157;28;20205;-61
2023/03/15 04:17:33;;;;;;;8.17;5.30;;;;;;;0.19;100.00;96634.56;5053646;28;20189;-61
2023/03/15 04:20:00;;;;;;;8.20;5.47;;;;;;;0.04;100.00;96636.22;5053648;28;20202;-60
2023/03/15 04:22:26;;;;;;;7.27;5.73;;;;;;;0.06;100.00;96648.94;5053236;28;20627;-60
2023/03/15 04:24:51;;;;;;;7.83;5.73;;;;;;;0.06;100.00;96641.22;5053701;28;20229;-61
2023/03/15 04:27:17;;;;;;;7.40;5.53;;;;;;;0.05;100.00;96647.31;5083631;28;20290;-59
2023/03/15 04:29:42;;;;;;;8.03;6.00;;;;;;;0.04;100.00;96649.09;5093644;28;20217;-59
2023/03/15 04:32:09;;;;;;;10.00;6.60;;;;;;;0.08;100.00;96649.56;5093676;28;20644;-58
2023/03/15 04:34:37;;;;;;;6.50;5.90;;;;;;;0.03;100.00;96655.22;5093679;28;20157;-59
2023/03/15 04:37:04;;;;;;;10.27;6.57;;;;;;;0.04;100.00;96651.66;5075310;28;20192;-59
2023/03/15 04:39:30;;;;;;;6.27;5.67;;;;;;;-0.10;100.00;96654.91;5093836;28;20205;-60
2023/03/15 04:41:55;;;;;;;9.43;6.87;;;;;;;-0.06;100.00;96653.63;5093391;28;20222;-60
2023/03/15 04:44:25;;;;;;;6.67;6.10;;;;;;;-0.05;100.00;96660.34;5093281;28;20253;-61
2023/03/15 04:46:50;;;;;;;8.20;6.70;;;;;;;-0.09;100.00;96667.63;5093550;28;20187;-61
2023/03/15 04:49:16;;;;;;;8.70;7.07;;;;;;;-0.08;100.00;96665.84;5093423;28;20200;-61
2023/03/15 04:51:41;;;;;;;7.60;6.00;;;;;;;-0.12;100.00;96673.09;5093144;28;20200;-60
2023/03/15 04:54:07;;;;;;;8.80;5.83;;;;;;;-0.12;100.00;96660.22;5093322;28;20165;-60
2023/03/15 04:56:32;;;;;;;8.90;6.70;;;;;;;-0.12;100.00;96674.88;5092248;28;20200;-60
2023/03/15 04:58:57;;;;;;;7.37;6.63;;;;;;;-0.14;100.00;96669.06;5091259;28;20216;-60
2023/03/15 05:01:29;;;;;;;6.60;6.00;;;;;;;-0.14;100.00;96669.88;5093103;28;20644;-59
2023/03/15 05:03:54;;;;;;;6.57;6.07;;;;;;;-0.20;100.00;96670.53;5093358;28;20168;-61
2023/03/15 05:06:19;;;;;;;7.63;6.10;;;;;;;-0.22;100.00;96657.00;5093133;28;20161;-60
2023/03/15 05:08:45;;;;;;;7.67;6.57;;;;;;;-0.18;100.00;96663.44;5093037;28;20204;-60
2023/03/15 05:11:11;;;;;;;7.90;6.00;;;;;;;-0.15;100.00;96662.31;5092935;28;20169;-59
2023/03/15 05:13:37;;;;;;;11.90;7.23;;;;;;;-0.09;100.00;96662.47;5092441;28;20307;-60
2023/03/15 05:16:02;;;;;;;7.77;6.40;;;;;;;-0.14;100.00;96662.16;5093023;28;20216;-60
2023/03/15 05:18:28;;;;;;;8.10;6.33;;;;;;;-0.17;100.00;96667.63;5092726;28;20249;-57
2023/03/15 05:20:56;;;;;;;7.30;6.70;;;;;;;-0.15;100.00;96660.53;5092761;28;20219;-60
2023/03/15 05:23:23;;;;;;;12.60;7.00;;;;;;;-0.25;100.00;96662.50;5092856;28;20176;-60
2023/03/15 05:25:52;;;;;;;12.37;6.83;;;;;;;-0.22;100.00;96663.91;5086707;28;20367;-59
2023/03/15 05:28:18;;;;;;;8.83;7.03;;;;;;;-0.22;100.00;96661.34;5072230;28;20244;-58
2023/03/15 05:30:44;;;;;;;9.60;7.27;;;;;;;-0.27;100.00;96666.19;5071355;28;20185;-61
2023/03/15 05:33:10;;;;;;;10.67;7.10;;;;;;;-0.26;100.00;96666.03;5072569;28;20632;-60
2023/03/15 05:35:35;;;;;;;12.77;6.53;;;;;;;-0.23;100.00;96667.47;5054755;28;20223;-59
2023/03/15 05:38:02;;;;;;;10.77;7.30;;;;;;;-0.16;100.00;96665.84;5072473;28;20228;-59
2023/03/15 05:40:29;;;;;;;8.13;6.97;;;;;;;-0.17;100.00;96667.63;5072807;28;20176;-60
2023/03/15 05:42:55;;;;;;;11.10;7.20;;;;;;;-0.20;100.00;96667.94;5072782;28;20165;-61
2023/03/15 05:45:21;;;;;;;9.10;6.90;;;;;;;-0.11;100.00;96672.13;5072476;28;20632;-61
2023/03/15 05:47:46;;;;;;;9.40;7.47;;;;;;;-0.13;100.00;96671.50;5072232;28;20196;-61
2023/03/15 05:50:12;;;;;;;11.27;6.93;;;;;;;0.01;100.00;96677.75;5054412;28;20256;-60
2023/03/15 05:52:37;;;;;;;7.47;6.77;;;;;;;0.03;100.00;96680.16;5072258;28;20661;-60
2023/03/15 05:55:03;;;;;;;15.03;6.80;;;;;;;0.08;100.00;96680.47;5072302;28;20176;-58
2023/03/15 05:57:28;;;;;;;13.07;6.20;;;;;;;0.22;100.00;96690.94;5069306;28;20212;-60
2023/03/15 05:59:54;;;;;;;12.60;6.50;;;;;;;0.32;100.00;96686.41;5072014;28;20204;-58
2023/03/15 06:02:20;;;;;;;12.47;6.43;;;;;;;0.44;100.00;96691.19;5072236;28;20530;-58
2023/03/15 06:04:46;;;;;;;7.03;5.60;;;;;;;0.58;100.00;96693.06;5072587;28;20176;-60
2023/03/15 06:07:11;;;;;;;8.13;5.40;;;;;;;0.74;100.00;96687.84;5072203;28;20189;-63
2023/03/15 06:09:36;;;;;;;7.17;6.00;;;;;;;0.88;100.00;96688.94;5072357;28;20193;-60
2023/03/15 06:12:02;;;;;;;9.37;5.47;;;;;;;0.95;100.00;96689.88;5072329;28;20558;-60
2023/03/15 06:14:28;;;;;;;9.53;5.57;;;;;;;1.01;100.00;96695.13;5054178;28;20310;-60
2023/03/15 06:16:54;;;;;;;6.50;5.70;;;;;;;1.20;100.00;96694.72;5072181;28;20189;-61
2023/03/15 06:19:21;;;;;;;6.53;5.90;;;;;;;1.28;100.00;96695.66;5054185;28;20616;-60
2023/03/15 06:21:47;;;;;;;9.93;6.23;;;;;;;1.34;100.00;96697.56;5071683;28;20205;-60
2023/03/15 06:24:13;;;;;;;9.30;8.27;;;;;;;1.45;100.00;96697.94;5072113;28;20282;-59
2023/03/15 06:26:38;;;;;;;9.50;7.10;;;;;;;1.61;100.00;96704.81;5084825;28;20228;-61
2023/03/15 06:29:04;;;;;;;8.90;5.83;;;;;;;1.60;100.00;96705.78;5096000;28;20196;-61
2023/03/15 06:31:29;;;;;;;11.37;6.73;;;;;;;1.53;100.00;96704.84;5096007;28;20204;-61
2023/03/15 06:33:54;;;;;;;9.37;6.33;;;;;;;1.58;100.00;96711.09;5077750;28;20530;-63
2023/03/15 06:36:20;;;;;;;7.63;6.80;;;;;;;1.75;100.00;96719.53;5095997;28;20165;-59
2023/03/15 06:38:45;;;;;;;10.33;6.70;;;;;;;1.77;100.00;96717.59;5095960;28;20197;-60
2023/03/15 06:41:11;;;;;;;8.63;6.30;;;;;;;1.94;100.00;96723.44;5095976;28;20177;-61
2023/03/15 06:43:37;;;;;;;8.00;5.20;;;;;;;2.02;100.00;96731.09;5095870;28;20649;-59
2023/03/15 06:46:02;;;;;;;9.37;5.53;;;;;;;2.00;100.00;96720.97;5095819;28;20160;-60
2023/03/15 06:48:28;;;;;;;11.17;7.40;;;;;;;2.19;100.00;96727.41;5095850;28;20222;-60
2023/03/15 06:50:54;;;;;;;6.33;5.77;;;;;;;2.30;100.00;96726.97;5095710;28;20214;-60
2023/03/15 06:53:19;;;;;;;10.23;5.57;;;;;;;2.26;100.00;96723.16;5095443;28;20200;-60
2023/03/15 06:55:46;;;;;;;9.50;5.27;;;;;;;2.30;100.00;96728.75;5094822;28;20176;-58
2023/03/15 06:58:12;;;;;;;10.97;5.90;;;;;;;2.39;100.00;96728.53;5093907;28;20516;-59
2023/03/15 07:00:37;;;;;;;6.80;6.20;;;;;;;2.23;100.00;96738.22;5095588;28;20172;-60
2023/03/15 07:03:03;;;;;;;7.93;7.27;;;;;;;2.43;100.00;96726.38;5095519;28;20526;-56
2023/03/15 07:05:29;;;;;;;8.23;7.53;;;;;;;2.74;100.00;96724.41;5077338;28;20165;-62
2023/03/15 07:07:55;;;;;;;6.80;5.10;;;;;;;2.87;100.00;96722.00;5095211;28;20177;-57
2023/03/15 07:10:20;;;;;;;7.67;5.60;;;;;;;2.84;99.42;96726.75;5095522;28;20200;-56
2023/03/15 07:12:46;;;;;;;8.27;4.93;;;;;;;2.80;98.54;96731.47;5095000;28;20307;-57
2023/03/15 07:15:11;;;;;;;9.67;5.40;;;;;;;2.99;97.17;96735.31;5095558;28;20248;-58
2023/03/15 07:17:37;;;;;;;6.77;5.37;;;;;;;2.98;96.33;96733.69;5094730;28;20226;-58
2023/03/15 07:20:04;;;;;;;7.37;6.03;;;;;;;2.99;96.27;96737.09;5095031;28;20229;-60
2023/03/15 07:22:31;;;;;;;8.03;5.63;;;;;;;3.07;96.34;96736.97;5095013;28;20183;-64
2023/03/15 07:24:56;;;;;;;9.40;6.07;;;;;;;2.98;95.66;96745.81;5094961;28;20241;-59
2023/03/15 07:27:22;;;;;;;6.87;5.13;;;;;;;3.05;94.86;96741.53;5075973;28;20232;-68
2023/03/15 07:29:47;;;;;;;5.77;4.30;;;;;;;2.87;94.32;96736.72;5074439;28;20209;-62
2023/03/15 07:32:13;;;;;;;10.43;5.30;;;;;;;2.88;94.86;96744.31;5075050;28;20214;-65
2023/03/15 07:34:38;;;;;;;6.73;5.10;;;;;;;2.84;94.84;96758.59;5074099;28;20177;-61
2023/03/15 07:37:03;;;;;;;8.63;4.60;;;;;;;3.06;95.45;96762.09;5056500;28;20176;-61
2023/03/15 07:39:31;;;;;;;11.43;4.53;;;;;;;3.13;93.17;96768.13;5074492;28;20787;-60
2023/03/15 07:41:58;;;;;;;6.50;5.23;;;;;;;3.24;93.21;96770.25;5074685;28;20530;-61
2023/03/15 07:44:24;;;;;;;12.40;5.17;;;;;;;3.38;92.28;96767.84;5074494;28;20169;-61
2023/03/15 07:46:49;;;;;;;8.07;7.33;;;;;;;3.37;92.15;96768.81;5074687;28;20540;-59
2023/03/15 07:49:15;;;;;;;7.13;4.77;;;;;;;3.32;93.53;96774.53;5074533;28;20691;-62
2023/03/15 07:51:41;;;;;;;10.77;5.60;;;;;;;3.20;92.64;96776.78;5074412;28;20170;-62
2023/03/15 07:54:07;;;;;;;7.03;5.03;;;;;;;3.31;93.03;96771.16;5074545;28;20263;-62
2023/03/15 07:56:33;;;;;;;6.53;5.80;;;;;;;3.42;94.39;96775.06;5063392;28;20606;-60
2023/03/15 07:58:58;;;;;;;11.57;5.87;;;;;;;3.53;92.77;96776.38;5054177;28;20194;-62
2023/03/15 08:01:24;;;;;;;8.77;7.87;;;;;;;3.50;93.02;96771.56;5054284;28;20173;-61
2023/03/15 08:03:50;;;;;;;10.07;7.67;;;;;;;3.46;92.14;96768.53;5054608;28;20177;-63
2023/03/15 08:06:16;;;;;;;8.13;6.77;;;;;;;3.60;91.00;96770.28;5054280;28;20162;-62
2023/03/15 08:08:41;;;;;;;7.50;6.77;;;;;;;3.72;90.03;96761.03;5053936;28;20228;-61
2023/03/15 08:11:06;;;;;;;8.63;7.63;;;;;;;3.81;88.88;96769.50;5053670;28;20249;-67
2023/03/15 08:13:32;;;;;;;18.83;17.23;;;;;;;6.09;100.00;96761.59;5053677;28;20241;-60
2023/03/15 08:15:58;;;;;;;16.33;15.27;;;;;;;5.22;85.38;96767.53;5053758;28;20178;-62
2023/03/15 08:18:23;;;;;;;12.83;12.00;;;;;;;4.37;86.85;96772.19;5069583;28;20699;-56
2023/03/15 08:20:49;;;;;;;9.40;8.53;;;;;;;4.09;88.52;96772.97;5072162;28;20203;-58
2023/03/15 08:23:15;;;;;;;19.70;18.23;;;;;;;4.06;89.61;96775.13;5073816;28;20212;-57
2023/03/15 08:25:42;;;;;;;29.23;27.30;;;;;;;4.10;89.03;96779.75;5074490;28;20232;-60
2023/03/15 08:28:08;;;;;;;13.90;12.70;;;;;;;4.02;90.35;96773.88;5097540;28;20216;-61
2023/03/15 08:30:34;;;;;;;9.57;8.87;;;;;;;3.99;90.01;96774.25;5093303;28;20184;-60
2023/03/15 08:32:59;;;;;;;5.10;4.67;;;;;;;3.93;91.00;96770.63;5093755;28;20189;-59
2023/03/15 08:35:26;;;;;;;5.90;5.40;;;;;;;4.15;90.42;96767.03;5093581;28;20164;-60
2023/03/15 08:37:51;;;;;;;5.60;5.13;;;;;;;4.10;90.16;96771.16;5096733;28;20207;-57
2023/03/15 08:40:25;;;;;;;8.10;7.50;;;;;;;3.99;88.26;96780.25;5092699;28;20621;-57
2023/03/15 08:42:52;;;;;;;9.73;5.27;;;;;;;4.30;88.19;96777.31;5093637;28;20157;-58
2023/03/15 08:45:18;;;;;;;6.30;5.90;;;;;;;4.30;87.71;96781.69;5093648;28;20164;-57
2023/03/15 08:47:44;;;;;;;6.47;5.83;;;;;;;4.41;87.16;96781.19;5074384;28;20596;-60
2023/03/15 08:50:12;;;;;;;8.60;6.13;;;;;;;4.62;85.34;96775.97;5093461;28;20176;-58
2023/03/15 08:52:38;;;;;;;6.10;5.47;;;;;;;4.91;82.96;96785.34;5093183;28;20195;-56
2023/03/15 08:55:04;;;;;;;5.80;5.23;;;;;;;5.16;80.79;96786.50;5091592;28;20168;-58
2023/03/15 08:57:31;;;;;;;5.77;5.00;;;;;;;5.42;81.71;96784.00;5092421;28;20267;-59
2023/03/15 09:00:00;;;;;;;9.27;7.03;;;;;;;5.28;79.14;96784.16;5093042;28;20188;-57
2023/03/15 09:02:27;;;;;;;9.47;8.60;;;;;;;5.42;76.37;96793.59;5093143;28;20188;-59
2023/03/15 09:04:53;;;;;;;15.17;14.17;;;;;;;5.48;76.88;96799.81;5093055;28;20172;-58
2023/03/15 09:07:19;;;;;;;9.60;8.83;;;;;;;5.51;76.20;96802.84;5093158;28;20559;-58
2023/03/15 09:09:47;;;;;;;8.70;8.10;;;;;;;5.43;76.80;96806.41;5092854;28;20677;-56
2023/03/15 09:12:16;;;;;;;9.70;9.10;;;;;;;5.60;74.03;96813.88;5092689;28;20196;-54
2023/03/15 09:14:42;;;;;;;10.40;9.47;;;;;;;5.47;73.04;96808.59;5092621;28;20250;-60
2023/03/15 09:17:08;;;;;;;8.13;7.40;;;;;;;5.44;73.73;96807.22;5092893;28;20184;-58
2023/03/15 09:19:34;;;;;;;9.37;7.73;;;;;;;5.42;73.48;96825.59;5092951;28;20203;-59
2023/03/15 09:22:01;;;;;;;8.20;7.27;;;;;;;5.48;73.78;96818.00;5092631;28;20673;-60
2023/03/15 09:24:26;;;;;;;6.87;6.10;;;;;;;5.63;73.67;96822.06;5092901;28;20176;-60
2023/03/15 09:26:52;;;;;;;7.27;6.67;;;;;;;5.51;72.95;96815.84;5077706;28;20724;-59
2023/03/15 09:29:17;;;;;;;9.43;5.87;;;;;;;5.69;71.41;96817.88;5072511;28;20276;-60
2023/03/15 09:31:43;;;;;;;6.90;5.37;;;;;;;5.75;72.51;96825.72;5072651;28;20222;-60
2023/03/15 09:34:08;;;;;;;6.23;5.73;;;;;;;6.14;72.11;96819.03;5072585;28;20583;-60
2023/03/15 09:36:34;;;;;;;5.93;5.07;;;;;;;6.12;68.86;96821.06;5072606;28;20219;-60
2023/03/15 09:39:03;;;;;;;7.27;6.67;;;;;;;6.13;66.67;96831.25;5072626;28;20196;-60
2023/03/15 09:41:48;;;;;;;5.10;4.43;;;;;;;6.24;67.42;96822.84;5072601;28;20197;-59
2023/03/15 09:44:32;;;;;;;6.20;5.00;;;;;;;5.94;67.28;96833.81;5072510;28;20678;-59
2023/03/15 09:47:31;;;;;;;5.80;4.67;;;;;;;6.13;66.37;96827.88;5072693;28;20169;-60
2023/03/15 09:50:06;;;;;;;4.90;4.50;;;;;;;5.93;66.52;96830.41;5072238;28;20205;-60
2023/03/15 09:52:34;;;;;;;6.37;4.73;;;;;;;6.03;67.17;96837.81;5072398;28;20623;-60
2023/03/15 09:55:10;;;;;;;5.87;5.37;;;;;;;6.05;66.62;96828.84;5070492;28;20221;-61
2023/03/15 09:58:00;;;;;;;6.83;5.33;;;;;;;5.87;67.13;96836.38;5052265;28;20591;-60
2023/03/15 10:00:35;;;;;;;8.63;5.03;;;;;;;5.68;67.81;96839.72;5054318;28;20646;-60
2023/03/15 10:03:05;;;;;;;7.93;5.70;;;;;;;5.60;67.65;96835.47;5056990;28;20252;-60
2023/03/15 10:05:40;;;;;;;8.60;5.30;;;;;;;5.75;68.09;96830.91;5056403;28;20607;-60
2023/03/15 10:08:16;;;;;;;8.10;5.17;;;;;;;5.80;68.72;96828.53;5056091;28;20219;-60
2023/03/15 10:10:59;;;;;;;5.73;5.23;;;;;;;5.88;68.37;96832.00;5056205;28;20170;-60
2023/03/15 10:13:27;;;;;;;8.97;5.50;;;;;;;5.65;70.01;96827.88;5056196;28;20584;-60
2023/03/15 10:16:01;;;;;;;5.63;5.07;;;;;;;5.75;69.31;96830.91;5038141;28;20186;-60
2023/03/15 10:18:48;;;;;;;7.17;5.57;;;;;;;6.01;68.79;96824.25;5055906;28;20213;-58
2023/03/15 10:21:48;;;;;;;6.03;5.57;;;;;;;6.13;68.42;96826.03;5055360;28;20177;-59
2023/03/15 10:24:31;;;;;;;5.83;5.33;;;;;;;6.33;66.87;96820.88;5056042;28;20257;-59
2023/03/15 10:27:00;;;;;;;8.53;8.03;;;;;;;6.54;66.93;96830.31;5058921;28;20233;-57
2023/03/15 10:29:26;;;;;;;8.07;7.23;;;;;;;6.47;67.53;96834.69;5075940;28;20289;-60
2023/03/15 10:31:53;;;;;;;8.10;7.30;;;;;;;6.74;66.64;96827.72;5075574;28;20165;-60
2023/03/15 10:34:20;;;;;;;5.70;5.00;;;;;;;6.55;65.86;96817.09;5074607;28;20590;-56
2023/03/15 10:36:53;;;;;;;4.33;3.90;;;;;;;6.54;64.84;96822.50;5075595;28;20610;-60
2023/03/15 10:39:20;;;;;;;6.50;5.83;;;;;;;6.58;64.80;96823.69;5075667;28;20767;-58
2023/03/15 10:41:49;;;;;;;5.00;4.60;;;;;;;6.31;64.46;96809.06;5075818;28;20177;-60
2023/03/15 10:44:23;;;;;;;6.37;5.40;;;;;;;6.03;64.83;96823.03;5075515;28;20550;-60
2023/03/15 10:47:05;;;;;;;4.43;4.07;;;;;;;6.26;62.79;96820.88;5075544;28;20253;-60
2023/03/15 10:49:39;;;;;;;6.30;4.37;;;;;;;6.35;63.31;96816.28;5073926;28;20201;-59
2023/03/15 10:52:39;;;;;;;4.67;4.17;;;;;;;6.46;63.00;96818.31;5075608;28;20243;-58
2023/03/15 10:55:14;;;;;;;4.73;4.13;;;;;;;6.42;62.87;96824.88;5073422;28;20197;-60
2023/03/15 10:58:26;;;;;;;4.40;4.00;;;;;;;7.06;61.41;96817.25;5074511;28;20193;-60
2023/03/15 11:01:02;;;;;;;4.10;3.83;;;;;;;7.33;60.97;96820.59;5075849;28;20169;-60
2023/03/15 11:03:30;;;;;;;3.37;3.10;;;;;;;7.59;61.02;96817.09;5075898;28;20165;-59
2023/03/15 11:06:01;;;;;;;3.97;2.80;;;;;;;7.57;58.89;96815.72;5075570;28;20169;-57
2023/03/15 11:08:36;;;;;;;3.53;3.23;;;;;;;7.44;60.35;96819.16;5075288;28;20205;-60
2023/03/15 11:11:05;;;;;;;4.00;3.63;;;;;;;7.60;58.15;96816.09;5074794;28;20264;-59
2023/03/15 11:13:32;;;;;;;5.67;3.50;;;;;;;7.24;58.96;96814.00;5073619;28;20209;-60
2023/03/15 11:16:20;;;;;;;4.63;3.70;;;;;;;7.02;59.84;96810.06;5074895;28;20574;-60
2023/03/15 11:19:00;;;;;;;6.03;3.80;;;;;;;6.94;60.32;96818.06;5075042;28;20201;-57
2023/03/15 11:21:32;;;;;;;4.40;3.83;;;;;;;6.58;61.07;96813.28;5074385;28;20245;-60
2023/03/15 11:24:00;;;;;;;3.87;3.30;;;;;;;6.41;62.05;96810.25;5074933;28;20185;-59
2023/03/15 11:26:53;;;;;;;3.90;3.60;;;;;;;6.37;63.15;96803.06;5067026;28;20264;-61
2023/03/15 11:29:25;;;;;;;4.23;3.93;;;;;;;6.48;62.35;96807.66;5055068;28;20205;-60
2023/03/15 11:31:52;;;;;;;4.40;3.80;;;;;;;6.67;61.54;96801.66;5036393;28;20528;-58
2023/03/15 11:34:23;;;;;;;4.77;3.60;;;;;;;6.65;61.22;96812.28;5054520;28;20194;-59
2023/03/15 11:36:55;;;;;;;4.43;3.47;;;;;;;6.72;60.45;96801.88;5054724;28;20572;-58
2023/03/15 11:39:44;;;;;;;3.87;3.67;;;;;;;6.84;60.34;96809.88;5054722;28;20201;-57